Ely, MN

12:08 PM CDT on July 23, 2014 (GMT -0500)
Ely Municipal (KELO) Elev 1453 ft | 47.82 °N, 91.83 °W | Change Station
Active Advisory: Areal Flood Warning

Current weather conditions updated 16 minutes ago

Mostly Cloudy
Mostly Cloudy
64 °F
Feels Like 64 °F
N
7
Wind Variable Wind from NW

Today is forecast to be Cooler than yesterday.

Today
High -- | Low -- °F
--% Chance of Precip.
Yesterday
High -- | Low -- °F
Precip. -- in
5:33 AM 8:54 PM
Waning Crescent, 9% visible
Pressure 30.27 in
Visibility 10.0 miles
Clouds Mostly Cloudy 4100 ft
Mostly Cloudy 5000 ft
Dew Point 50 °F
Humidity 59%
Rainfall 0.00 in
Snow Depth Not available.
UV 5 out of 12
Pollen 5.20 out of 12
Air Quality Not available.
Flu Activity Not available.
METAR KELO 231652Z AUTO 32006KT 10SM BKN041 BKN050 18/10 A3027 RMK AO2

More Conditions Fewer Conditions

Pressure 30.27 in
Visibility 10.0 miles
Clouds Mostly Cloudy 4100 ft
Mostly Cloudy 5000 ft
Dew Point 50 °F
Humidity 59%
Rainfall 0.00 in
Snow Depth Not available.
UV 5 out of 12
Pollen 5.20 out of 12
Air Quality Not available.
Flu Activity Not available.
METAR KELO 231652Z AUTO 32006KT 10SM BKN041 BKN050 18/10 A3027 RMK AO2

More Conditions Fewer Conditions

10-Day Weather Forecast

Almanac

Astronomy

Jul. 23, 2014 Rise Set
Actual Time 5:33 AM CDT 8:54 PM CDT
Civil Twilight 4:55 AM CDT 9:32 PM CDT
Nautical Twilight 4:05 AM CDT 10:21 PM CDT
Astronomical Twilight 3:00 AM CDT 11:25 PM CDT
Moon 2:54 AM CDT 6:21 PM CDT
Length of Visible Light 16h 36m
Length of Day
15h 21m
Tomorrow will be 2m 20s shorter.
Waning Crescent, 9% of the Moon is Illuminated
Today
Waning Crescent
Jul 26
New
Aug 3
First Quarter
Aug 10
Full
Aug 17
Last Quarter

Today's Extremes

State Highs State Lows

Community

WunderPhotos

Upload Photos

1,736,674 photos uploaded!

Nearby

Snow Depth

Station Depth Elevation
No new snow has been reported.

Earthquake Activity

City Distance Mag. Time & Date
No recent earthquake activity has been reported nearby.
Minimum magnitude displayed is 2.5.

Coastal Water Temperatures

Place Temperature
No Stations Reporting

Nearby Weather Stations

Station Location Temp. Dew Point Humidity Wind Precip. Elev Updated Type
RAWS ELY MN, Ely, MN 69 °F 54 °F 58% North  at  5 mph 0.00 in / hr 1455 ft 11:04 AM CDT MADIS
Near Bearhead Lake State Park - Tower, S, Ely, MN 68.4 °F 52 °F 57% NW  at  3.3 mph 0.00 in / hr 1575 ft 12:08 PM CDT Rapid Fire
HADS SOUTH FORK KAWISHIWI RIVER NEAR MN, Winton, MN 66 °F - - North  at  - 0.00 in / hr 1419 ft 11:30 AM CDT MADIS
RAWS MEANDER MN, Crane Lake, MN 68 °F 52 °F 57% North  at  4 mph 0.00 in / hr 1368 ft 11:04 AM CDT MADIS
Snowbank Lake, Ely, MN 67.3 °F 53 °F 61% ENE  at  3.0 mph 0.00 in / hr 1424 ft 12:06 PM CDT Normal

Show More Stations Show Fewer Stations